sensor_id;sensor_type;location;lat;lon;timestamp;P1;durP1;ratioP1;P2;durP2;ratioP2
12110;SDS011;6119;52.372;8.990;2022-11-13T00:01:15;12.67;;;9.60;;
12110;SDS011;6119;52.372;8.990;2022-11-13T00:04:03;11.67;;;8.93;;
12110;SDS011;6119;52.372;8.990;2022-11-13T00:06:51;12.53;;;9.37;;
12110;SDS011;6119;52.372;8.990;2022-11-13T00:09:43;15.30;;;9.43;;
12110;SDS011;6119;52.372;8.990;2022-11-13T00:12:29;14.23;;;10.37;;
12110;SDS011;6119;52.372;8.990;2022-11-13T00:15:16;13.30;;;10.40;;
12110;SDS011;6119;52.372;8.990;2022-11-13T00:18:03;14.93;;;10.03;;
12110;SDS011;6119;52.372;8.990;2022-11-13T00:20:49;17.20;;;10.53;;
12110;SDS011;6119;52.372;8.990;2022-11-13T00:23:37;13.63;;;9.90;;
12110;SDS011;6119;52.372;8.990;2022-11-13T00:26:25;13.53;;;9.97;;
12110;SDS011;6119;52.372;8.990;2022-11-13T00:29:12;15.83;;;10.87;;
12110;SDS011;6119;52.372;8.990;2022-11-13T00:31:59;15.40;;;9.37;;
12110;SDS011;6119;52.372;8.990;2022-11-13T00:34:45;15.13;;;10.03;;
12110;SDS011;6119;52.372;8.990;2022-11-13T00:37:32;12.93;;;9.13;;
12110;SDS011;6119;52.372;8.990;2022-11-13T00:40:20;13.27;;;9.47;;
12110;SDS011;6119;52.372;8.990;2022-11-13T00:43:07;9.40;;;7.90;;
12110;SDS011;6119;52.372;8.990;2022-11-13T00:45:53;11.47;;;8.00;;
12110;SDS011;6119;52.372;8.990;2022-11-13T00:48:40;10.97;;;8.20;;
12110;SDS011;6119;52.372;8.990;2022-11-13T00:51:26;11.13;;;8.30;;
12110;SDS011;6119;52.372;8.990;2022-11-13T00:54:13;11.27;;;8.30;;
12110;SDS011;6119;52.372;8.990;2022-11-13T00:57:01;16.07;;;9.10;;
12110;SDS011;6119;52.372;8.990;2022-11-13T00:59:48;12.50;;;8.53;;
12110;SDS011;6119;52.372;8.990;2022-11-13T01:02:34;12.10;;;8.13;;
12110;SDS011;6119;52.372;8.990;2022-11-13T01:05:21;11.60;;;8.47;;
12110;SDS011;6119;52.372;8.990;2022-11-13T01:08:08;13.53;;;9.10;;
12110;SDS011;6119;52.372;8.990;2022-11-13T01:10:56;12.00;;;7.87;;
12110;SDS011;6119;52.372;8.990;2022-11-13T01:13:44;10.97;;;8.20;;
12110;SDS011;6119;52.372;8.990;2022-11-13T01:16:32;11.13;;;8.20;;
12110;SDS011;6119;52.372;8.990;2022-11-13T01:19:19;13.77;;;7.97;;
12110;SDS011;6119;52.372;8.990;2022-11-13T01:22:05;13.77;;;8.30;;
12110;SDS011;6119;52.372;8.990;2022-11-13T01:24:52;10.07;;;7.87;;
12110;SDS011;6119;52.372;8.990;2022-11-13T01:27:38;12.87;;;7.63;;
12110;SDS011;6119;52.372;8.990;2022-11-13T01:30:26;9.80;;;7.30;;
12110;SDS011;6119;52.372;8.990;2022-11-13T01:33:13;10.23;;;7.10;;
12110;SDS011;6119;52.372;8.990;2022-11-13T01:36:00;10.47;;;7.13;;
12110;SDS011;6119;52.372;8.990;2022-11-13T01:38:49;9.60;;;7.43;;
12110;SDS011;6119;52.372;8.990;2022-11-13T01:41:36;11.07;;;7.30;;
12110;SDS011;6119;52.372;8.990;2022-11-13T01:44:23;8.43;;;6.50;;
12110;SDS011;6119;52.372;8.990;2022-11-13T01:47:11;8.03;;;6.60;;
12110;SDS011;6119;52.372;8.990;2022-11-13T01:49:59;7.87;;;6.40;;
12110;SDS011;6119;52.372;8.990;2022-11-13T01:52:46;9.27;;;6.33;;
12110;SDS011;6119;52.372;8.990;2022-11-13T01:55:33;7.67;;;6.03;;
12110;SDS011;6119;52.372;8.990;2022-11-13T01:58:19;7.80;;;5.80;;
12110;SDS011;6119;52.372;8.990;2022-11-13T02:01:06;7.97;;;5.83;;
12110;SDS011;6119;52.372;8.990;2022-11-13T02:03:54;9.03;;;6.87;;
12110;SDS011;6119;52.372;8.990;2022-11-13T02:06:41;6.93;;;5.70;;
12110;SDS011;6119;52.372;8.990;2022-11-13T02:09:32;9.30;;;6.50;;
12110;SDS011;6119;52.372;8.990;2022-11-13T02:12:20;7.83;;;6.03;;
12110;SDS011;6119;52.372;8.990;2022-11-13T02:15:13;8.97;;;6.33;;
12110;SDS011;6119;52.372;8.990;2022-11-13T02:18:00;7.70;;;6.03;;
12110;SDS011;6119;52.372;8.990;2022-11-13T02:20:52;8.50;;;6.37;;
12110;SDS011;6119;52.372;8.990;2022-11-13T02:23:45;8.30;;;7.03;;
12110;SDS011;6119;52.372;8.990;2022-11-13T02:26:36;9.30;;;6.10;;
12110;SDS011;6119;52.372;8.990;2022-11-13T02:29:24;6.60;;;5.90;;
12110;SDS011;6119;52.372;8.990;2022-11-13T02:32:10;8.97;;;6.40;;
12110;SDS011;6119;52.372;8.990;2022-11-13T02:34:57;7.80;;;6.10;;
12110;SDS011;6119;52.372;8.990;2022-11-13T02:37:44;9.17;;;7.03;;
12110;SDS011;6119;52.372;8.990;2022-11-13T02:40:31;7.53;;;5.90;;
12110;SDS011;6119;52.372;8.990;2022-11-13T02:43:20;7.43;;;6.37;;
12110;SDS011;6119;52.372;8.990;2022-11-13T02:46:07;7.20;;;5.80;;
12110;SDS011;6119;52.372;8.990;2022-11-13T02:48:54;7.00;;;5.90;;
12110;SDS011;6119;52.372;8.990;2022-11-13T02:51:40;7.13;;;5.73;;
12110;SDS011;6119;52.372;8.990;2022-11-13T02:54:27;7.57;;;5.90;;
12110;SDS011;6119;52.372;8.990;2022-11-13T02:57:13;6.00;;;5.40;;
12110;SDS011;6119;52.372;8.990;2022-11-13T03:00:01;6.47;;;5.80;;
12110;SDS011;6119;52.372;8.990;2022-11-13T03:02:56;7.33;;;5.37;;
12110;SDS011;6119;52.372;8.990;2022-11-13T03:05:46;9.37;;;5.60;;
12110;SDS011;6119;52.372;8.990;2022-11-13T03:08:34;5.60;;;4.93;;
12110;SDS011;6119;52.372;8.990;2022-11-13T03:11:21;6.00;;;5.37;;
12110;SDS011;6119;52.372;8.990;2022-11-13T03:14:08;5.47;;;4.97;;
12110;SDS011;6119;52.372;8.990;2022-11-13T03:16:56;5.17;;;4.67;;
12110;SDS011;6119;52.372;8.990;2022-11-13T03:19:43;5.23;;;4.60;;
12110;SDS011;6119;52.372;8.990;2022-11-13T03:22:29;5.53;;;4.67;;
12110;SDS011;6119;52.372;8.990;2022-11-13T03:25:16;5.40;;;4.40;;
12110;SDS011;6119;52.372;8.990;2022-11-13T03:28:03;5.20;;;4.63;;
12110;SDS011;6119;52.372;8.990;2022-11-13T03:30:49;5.10;;;4.67;;
12110;SDS011;6119;52.372;8.990;2022-11-13T03:33:37;5.27;;;4.77;;
12110;SDS011;6119;52.372;8.990;2022-11-13T03:36:24;5.43;;;4.63;;
12110;SDS011;6119;52.372;8.990;2022-11-13T03:39:11;6.20;;;4.73;;
12110;SDS011;6119;52.372;8.990;2022-11-13T03:41:58;5.40;;;4.70;;
12110;SDS011;6119;52.372;8.990;2022-11-13T03:44:44;5.47;;;4.90;;
12110;SDS011;6119;52.372;8.990;2022-11-13T03:47:30;5.73;;;4.67;;
12110;SDS011;6119;52.372;8.990;2022-11-13T03:50:18;5.10;;;4.60;;
12110;SDS011;6119;52.372;8.990;2022-11-13T03:53:05;5.23;;;4.73;;
12110;SDS011;6119;52.372;8.990;2022-11-13T03:55:51;6.70;;;5.00;;
12110;SDS011;6119;52.372;8.990;2022-11-13T03:58:38;6.80;;;5.43;;
12110;SDS011;6119;52.372;8.990;2022-11-13T04:01:31;7.33;;;6.17;;
12110;SDS011;6119;52.372;8.990;2022-11-13T04:04:18;6.57;;;5.53;;
12110;SDS011;6119;52.372;8.990;2022-11-13T04:07:06;6.47;;;5.67;;
12110;SDS011;6119;52.372;8.990;2022-11-13T04:09:53;8.67;;;5.77;;
12110;SDS011;6119;52.372;8.990;2022-11-13T04:12:39;6.20;;;5.33;;
12110;SDS011;6119;52.372;8.990;2022-11-13T04:15:26;6.10;;;4.90;;
12110;SDS011;6119;52.372;8.990;2022-11-13T04:18:12;6.00;;;5.20;;
12110;SDS011;6119;52.372;8.990;2022-11-13T04:20:59;7.63;;;5.97;;
12110;SDS011;6119;52.372;8.990;2022-11-13T04:23:48;5.07;;;4.53;;
12110;SDS011;6119;52.372;8.990;2022-11-13T04:26:35;6.13;;;5.03;;
12110;SDS011;6119;52.372;8.990;2022-11-13T04:29:21;7.07;;;5.60;;
12110;SDS011;6119;52.372;8.990;2022-11-13T04:32:08;7.23;;;5.60;;
12110;SDS011;6119;52.372;8.990;2022-11-13T04:34:55;7.73;;;5.20;;
12110;SDS011;6119;52.372;8.990;2022-11-13T04:37:41;11.90;;;6.00;;
12110;SDS011;6119;52.372;8.990;2022-11-13T04:40:29;13.13;;;5.10;;
12110;SDS011;6119;52.372;8.990;2022-11-13T04:43:16;6.20;;;4.90;;
12110;SDS011;6119;52.372;8.990;2022-11-13T04:46:01;6.67;;;5.17;;
12110;SDS011;6119;52.372;8.990;2022-11-13T04:48:48;9.47;;;5.27;;
12110;SDS011;6119;52.372;8.990;2022-11-13T04:51:34;6.37;;;5.17;;
12110;SDS011;6119;52.372;8.990;2022-11-13T04:54:21;7.63;;;5.50;;
12110;SDS011;6119;52.372;8.990;2022-11-13T04:57:14;6.10;;;5.50;;
12110;SDS011;6119;52.372;8.990;2022-11-13T05:00:02;5.30;;;4.80;;
12110;SDS011;6119;52.372;8.990;2022-11-13T05:02:50;6.03;;;5.40;;
12110;SDS011;6119;52.372;8.990;2022-11-13T05:05:36;5.03;;;4.53;;
12110;SDS011;6119;52.372;8.990;2022-11-13T05:08:23;6.37;;;5.30;;
12110;SDS011;6119;52.372;8.990;2022-11-13T05:11:09;5.60;;;4.67;;
12110;SDS011;6119;52.372;8.990;2022-11-13T05:13:57;6.13;;;4.93;;
12110;SDS011;6119;52.372;8.990;2022-11-13T05:16:47;8.03;;;5.33;;
12110;SDS011;6119;52.372;8.990;2022-11-13T05:19:35;5.83;;;4.93;;
12110;SDS011;6119;52.372;8.990;2022-11-13T05:22:22;6.03;;;4.93;;
12110;SDS011;6119;52.372;8.990;2022-11-13T05:25:09;6.17;;;5.07;;
12110;SDS011;6119;52.372;8.990;2022-11-13T05:27:56;5.17;;;4.67;;
12110;SDS011;6119;52.372;8.990;2022-11-13T05:30:44;7.83;;;4.60;;
12110;SDS011;6119;52.372;8.990;2022-11-13T05:33:31;6.00;;;4.57;;
12110;SDS011;6119;52.372;8.990;2022-11-13T05:36:18;4.90;;;4.40;;
12110;SDS011;6119;52.372;8.990;2022-11-13T05:39:05;5.60;;;5.00;;
12110;SDS011;6119;52.372;8.990;2022-11-13T05:41:52;8.57;;;5.03;;
12110;SDS011;6119;52.372;8.990;2022-11-13T05:44:38;5.73;;;4.67;;
12110;SDS011;6119;52.372;8.990;2022-11-13T05:47:26;5.83;;;4.30;;
12110;SDS011;6119;52.372;8.990;2022-11-13T05:50:13;6.27;;;5.23;;
12110;SDS011;6119;52.372;8.990;2022-11-13T05:53:00;5.30;;;4.43;;
12110;SDS011;6119;52.372;8.990;2022-11-13T05:55:47;5.53;;;4.97;;
12110;SDS011;6119;52.372;8.990;2022-11-13T05:58:33;4.87;;;4.37;;
12110;SDS011;6119;52.372;8.990;2022-11-13T06:01:21;5.67;;;4.43;;
12110;SDS011;6119;52.372;8.990;2022-11-13T06:04:10;5.57;;;4.60;;
12110;SDS011;6119;52.372;8.990;2022-11-13T06:06:57;6.03;;;4.73;;
12110;SDS011;6119;52.372;8.990;2022-11-13T06:09:44;6.17;;;4.43;;
12110;SDS011;6119;52.372;8.990;2022-11-13T06:12:31;5.30;;;4.80;;
12110;SDS011;6119;52.372;8.990;2022-11-13T06:15:17;6.27;;;4.63;;
12110;SDS011;6119;52.372;8.990;2022-11-13T06:18:04;5.17;;;4.10;;
12110;SDS011;6119;52.372;8.990;2022-11-13T06:20:52;6.03;;;4.90;;
12110;SDS011;6119;52.372;8.990;2022-11-13T06:23:39;7.10;;;5.13;;
12110;SDS011;6119;52.372;8.990;2022-11-13T06:26:26;4.90;;;4.20;;
12110;SDS011;6119;52.372;8.990;2022-11-13T06:29:15;5.20;;;4.63;;
12110;SDS011;6119;52.372;8.990;2022-11-13T06:32:02;6.70;;;4.73;;
12110;SDS011;6119;52.372;8.990;2022-11-13T06:34:48;5.90;;;5.03;;
12110;SDS011;6119;52.372;8.990;2022-11-13T06:37:36;7.47;;;5.10;;
12110;SDS011;6119;52.372;8.990;2022-11-13T06:40:23;6.77;;;5.27;;
12110;SDS011;6119;52.372;8.990;2022-11-13T06:43:09;5.23;;;4.73;;
12110;SDS011;6119;52.372;8.990;2022-11-13T06:45:56;6.70;;;4.80;;
12110;SDS011;6119;52.372;8.990;2022-11-13T06:48:42;7.60;;;5.57;;
12110;SDS011;6119;52.372;8.990;2022-11-13T06:51:29;6.57;;;5.10;;
12110;SDS011;6119;52.372;8.990;2022-11-13T06:54:17;7.30;;;5.80;;
12110;SDS011;6119;52.372;8.990;2022-11-13T06:57:04;8.13;;;6.27;;
12110;SDS011;6119;52.372;8.990;2022-11-13T06:59:50;7.90;;;5.77;;
12110;SDS011;6119;52.372;8.990;2022-11-13T07:02:37;7.17;;;5.70;;
12110;SDS011;6119;52.372;8.990;2022-11-13T07:05:23;6.77;;;5.53;;
12110;SDS011;6119;52.372;8.990;2022-11-13T07:08:10;7.43;;;6.07;;
12110;SDS011;6119;52.372;8.990;2022-11-13T07:10:58;7.30;;;6.10;;
12110;SDS011;6119;52.372;8.990;2022-11-13T07:13:45;7.97;;;6.40;;
12110;SDS011;6119;52.372;8.990;2022-11-13T07:16:32;13.77;;;6.43;;
12110;SDS011;6119;52.372;8.990;2022-11-13T07:19:39;6.97;;;6.27;;
12110;SDS011;6119;52.372;8.990;2022-11-13T07:22:26;8.00;;;5.80;;
12110;SDS011;6119;52.372;8.990;2022-11-13T07:25:14;8.37;;;6.60;;
12110;SDS011;6119;52.372;8.990;2022-11-13T07:28:02;9.10;;;6.90;;
12110;SDS011;6119;52.372;8.990;2022-11-13T07:30:49;9.67;;;7.00;;
12110;SDS011;6119;52.372;8.990;2022-11-13T07:33:35;8.80;;;6.70;;
12110;SDS011;6119;52.372;8.990;2022-11-13T07:36:22;8.93;;;6.87;;
12110;SDS011;6119;52.372;8.990;2022-11-13T07:39:08;8.30;;;6.73;;
12110;SDS011;6119;52.372;8.990;2022-11-13T07:41:55;9.13;;;6.83;;
12110;SDS011;6119;52.372;8.990;2022-11-13T07:44:42;7.67;;;6.70;;
12110;SDS011;6119;52.372;8.990;2022-11-13T07:47:39;10.63;;;6.93;;
12110;SDS011;6119;52.372;8.990;2022-11-13T07:50:26;9.03;;;6.57;;
12110;SDS011;6119;52.372;8.990;2022-11-13T07:53:13;8.70;;;6.50;;
12110;SDS011;6119;52.372;8.990;2022-11-13T07:56:00;6.57;;;5.87;;
12110;SDS011;6119;52.372;8.990;2022-11-13T07:58:48;8.57;;;6.07;;
12110;SDS011;6119;52.372;8.990;2022-11-13T08:01:35;9.30;;;5.90;;
12110;SDS011;6119;52.372;8.990;2022-11-13T08:04:23;7.03;;;5.83;;
12110;SDS011;6119;52.372;8.990;2022-11-13T08:07:10;7.73;;;6.23;;
12110;SDS011;6119;52.372;8.990;2022-11-13T08:09:57;11.83;;;6.13;;
12110;SDS011;6119;52.372;8.990;2022-11-13T08:12:44;7.50;;;6.13;;
12110;SDS011;6119;52.372;8.990;2022-11-13T08:15:32;8.97;;;6.80;;
12110;SDS011;6119;52.372;8.990;2022-11-13T08:18:20;8.53;;;6.17;;
12110;SDS011;6119;52.372;8.990;2022-11-13T08:21:07;10.50;;;7.07;;
12110;SDS011;6119;52.372;8.990;2022-11-13T08:23:58;8.83;;;6.67;;
12110;SDS011;6119;52.372;8.990;2022-11-13T08:26:45;8.03;;;6.80;;
12110;SDS011;6119;52.372;8.990;2022-11-13T08:29:32;10.03;;;6.43;;
12110;SDS011;6119;52.372;8.990;2022-11-13T08:32:21;9.63;;;7.07;;
12110;SDS011;6119;52.372;8.990;2022-11-13T08:35:09;13.53;;;9.97;;
12110;SDS011;6119;52.372;8.990;2022-11-13T08:38:03;11.87;;;8.40;;
12110;SDS011;6119;52.372;8.990;2022-11-13T08:40:51;11.10;;;8.20;;
12110;SDS011;6119;52.372;8.990;2022-11-13T08:43:37;10.63;;;7.87;;
12110;SDS011;6119;52.372;8.990;2022-11-13T08:46:24;10.63;;;7.77;;
12110;SDS011;6119;52.372;8.990;2022-11-13T08:49:11;10.77;;;7.87;;
12110;SDS011;6119;52.372;8.990;2022-11-13T08:51:59;12.37;;;7.50;;
12110;SDS011;6119;52.372;8.990;2022-11-13T08:54:45;10.83;;;7.80;;
12110;SDS011;6119;52.372;8.990;2022-11-13T08:57:32;10.07;;;7.60;;
12110;SDS011;6119;52.372;8.990;2022-11-13T09:00:19;12.93;;;9.10;;
12110;SDS011;6119;52.372;8.990;2022-11-13T09:03:06;10.37;;;8.07;;
12110;SDS011;6119;52.372;8.990;2022-11-13T09:05:56;12.40;;;8.17;;
12110;SDS011;6119;52.372;8.990;2022-11-13T09:08:44;11.97;;;8.93;;
12110;SDS011;6119;52.372;8.990;2022-11-13T09:11:30;14.80;;;8.77;;
12110;SDS011;6119;52.372;8.990;2022-11-13T09:14:17;14.03;;;10.13;;
12110;SDS011;6119;52.372;8.990;2022-11-13T09:17:04;11.83;;;8.40;;
12110;SDS011;6119;52.372;8.990;2022-11-13T09:19:51;12.03;;;7.63;;
12110;SDS011;6119;52.372;8.990;2022-11-13T09:22:37;14.00;;;7.77;;
12110;SDS011;6119;52.372;8.990;2022-11-13T09:25:25;11.60;;;7.87;;
12110;SDS011;6119;52.372;8.990;2022-11-13T09:28:20;8.70;;;6.87;;
12110;SDS011;6119;52.372;8.990;2022-11-13T09:31:07;10.80;;;6.87;;
12110;SDS011;6119;52.372;8.990;2022-11-13T09:33:54;11.33;;;7.50;;
12110;SDS011;6119;52.372;8.990;2022-11-13T09:36:40;10.63;;;7.73;;
12110;SDS011;6119;52.372;8.990;2022-11-13T09:39:27;9.27;;;6.30;;
12110;SDS011;6119;52.372;8.990;2022-11-13T09:42:16;13.00;;;7.13;;
12110;SDS011;6119;52.372;8.990;2022-11-13T09:45:06;8.00;;;5.90;;
12110;SDS011;6119;52.372;8.990;2022-11-13T09:47:58;9.87;;;6.50;;
12110;SDS011;6119;52.372;8.990;2022-11-13T09:50:52;8.53;;;5.80;;
12110;SDS011;6119;52.372;8.990;2022-11-13T09:53:39;7.27;;;5.23;;
12110;SDS011;6119;52.372;8.990;2022-11-13T09:56:27;8.47;;;6.30;;
12110;SDS011;6119;52.372;8.990;2022-11-13T09:59:21;6.83;;;5.30;;
12110;SDS011;6119;52.372;8.990;2022-11-13T10:02:13;8.57;;;5.33;;
12110;SDS011;6119;52.372;8.990;2022-11-13T10:05:10;6.80;;;5.17;;
12110;SDS011;6119;52.372;8.990;2022-11-13T10:08:06;6.10;;;4.60;;
12110;SDS011;6119;52.372;8.990;2022-11-13T10:11:01;7.80;;;5.43;;
12110;SDS011;6119;52.372;8.990;2022-11-13T10:13:56;6.17;;;5.27;;
12110;SDS011;6119;52.372;8.990;2022-11-13T10:16:50;6.80;;;4.57;;
12110;SDS011;6119;52.372;8.990;2022-11-13T10:19:40;6.00;;;4.40;;
12110;SDS011;6119;52.372;8.990;2022-11-13T10:22:34;7.47;;;4.77;;
12110;SDS011;6119;52.372;8.990;2022-11-13T10:25:26;6.87;;;4.83;;
12110;SDS011;6119;52.372;8.990;2022-11-13T10:28:18;9.07;;;4.10;;
12110;SDS011;6119;52.372;8.990;2022-11-13T10:31:26;5.93;;;4.20;;
12110;SDS011;6119;52.372;8.990;2022-11-13T10:34:15;4.30;;;3.60;;
12110;SDS011;6119;52.372;8.990;2022-11-13T10:37:09;7.00;;;4.50;;
12110;SDS011;6119;52.372;8.990;2022-11-13T10:40:07;5.47;;;4.50;;
12110;SDS011;6119;52.372;8.990;2022-11-13T10:43:02;9.77;;;4.23;;
12110;SDS011;6119;52.372;8.990;2022-11-13T10:45:54;6.47;;;4.03;;
12110;SDS011;6119;52.372;8.990;2022-11-13T10:48:42;6.47;;;4.30;;
12110;SDS011;6119;52.372;8.990;2022-11-13T10:51:30;6.63;;;4.30;;
12110;SDS011;6119;52.372;8.990;2022-11-13T10:54:19;5.93;;;4.00;;
12110;SDS011;6119;52.372;8.990;2022-11-13T11:00:19;5.17;;;4.37;;
12110;SDS011;6119;52.372;8.990;2022-11-13T11:03:12;6.77;;;4.37;;
12110;SDS011;6119;52.372;8.990;2022-11-13T11:06:00;7.57;;;4.67;;
12110;SDS011;6119;52.372;8.990;2022-11-13T11:08:49;8.03;;;4.70;;
12110;SDS011;6119;52.372;8.990;2022-11-13T11:11:36;9.90;;;5.13;;
12110;SDS011;6119;52.372;8.990;2022-11-13T11:14:41;5.77;;;4.70;;
12110;SDS011;6119;52.372;8.990;2022-11-13T11:17:40;6.77;;;4.60;;
12110;SDS011;6119;52.372;8.990;2022-11-13T11:20:41;7.17;;;4.70;;
12110;SDS011;6119;52.372;8.990;2022-11-13T11:23:35;7.33;;;4.23;;
12110;SDS011;6119;52.372;8.990;2022-11-13T11:26:29;6.83;;;4.77;;
12110;SDS011;6119;52.372;8.990;2022-11-13T11:29:20;9.50;;;5.47;;
12110;SDS011;6119;52.372;8.990;2022-11-13T11:32:14;6.07;;;4.57;;
12110;SDS011;6119;52.372;8.990;2022-11-13T11:35:11;5.63;;;4.87;;
12110;SDS011;6119;52.372;8.990;2022-11-13T11:38:02;8.63;;;5.53;;
12110;SDS011;6119;52.372;8.990;2022-11-13T11:40:55;6.47;;;4.43;;
12110;SDS011;6119;52.372;8.990;2022-11-13T11:43:52;6.03;;;4.60;;
12110;SDS011;6119;52.372;8.990;2022-11-13T11:46:45;7.37;;;4.80;;
12110;SDS011;6119;52.372;8.990;2022-11-13T11:49:32;7.37;;;4.63;;
12110;SDS011;6119;52.372;8.990;2022-11-13T11:52:22;4.80;;;3.80;;
12110;SDS011;6119;52.372;8.990;2022-11-13T11:58:33;6.17;;;4.70;;
12110;SDS011;6119;52.372;8.990;2022-11-13T12:01:41;6.23;;;4.47;;
12110;SDS011;6119;52.372;8.990;2022-11-13T12:04:51;6.53;;;4.97;;
12110;SDS011;6119;52.372;8.990;2022-11-13T12:07:50;5.70;;;4.90;;
12110;SDS011;6119;52.372;8.990;2022-11-13T12:10:51;7.23;;;5.20;;
12110;SDS011;6119;52.372;8.990;2022-11-13T12:13:47;9.00;;;5.50;;
12110;SDS011;6119;52.372;8.990;2022-11-13T12:16:45;7.37;;;5.87;;
12110;SDS011;6119;52.372;8.990;2022-11-13T12:19:39;8.57;;;5.30;;
12110;SDS011;6119;52.372;8.990;2022-11-13T12:22:38;9.77;;;6.07;;
12110;SDS011;6119;52.372;8.990;2022-11-13T12:25:34;10.27;;;6.77;;
12110;SDS011;6119;52.372;8.990;2022-11-13T12:28:28;11.57;;;5.77;;
12110;SDS011;6119;52.372;8.990;2022-11-13T12:31:30;7.03;;;5.57;;
12110;SDS011;6119;52.372;8.990;2022-11-13T12:34:31;8.33;;;5.83;;
12110;SDS011;6119;52.372;8.990;2022-11-13T12:37:24;8.23;;;6.00;;
12110;SDS011;6119;52.372;8.990;2022-11-13T12:40:19;9.70;;;6.17;;
12110;SDS011;6119;52.372;8.990;2022-11-13T12:43:25;9.60;;;6.67;;
12110;SDS011;6119;52.372;8.990;2022-11-13T12:46:32;9.83;;;6.60;;
12110;SDS011;6119;52.372;8.990;2022-11-13T12:49:28;9.23;;;6.47;;
12110;SDS011;6119;52.372;8.990;2022-11-13T12:52:18;10.10;;;6.93;;
12110;SDS011;6119;52.372;8.990;2022-11-13T12:55:22;11.40;;;6.70;;
12110;SDS011;6119;52.372;8.990;2022-11-13T12:58:16;12.47;;;7.33;;
12110;SDS011;6119;52.372;8.990;2022-11-13T13:01:06;13.13;;;8.10;;
12110;SDS011;6119;52.372;8.990;2022-11-13T13:04:11;11.23;;;7.97;;
12110;SDS011;6119;52.372;8.990;2022-11-13T13:07:19;12.73;;;8.80;;
12110;SDS011;6119;52.372;8.990;2022-11-13T13:10:18;11.20;;;7.87;;
12110;SDS011;6119;52.372;8.990;2022-11-13T13:13:13;12.43;;;8.03;;
12110;SDS011;6119;52.372;8.990;2022-11-13T13:16:08;13.33;;;8.20;;
12110;SDS011;6119;52.372;8.990;2022-11-13T13:19:04;14.27;;;8.40;;
12110;SDS011;6119;52.372;8.990;2022-11-13T13:21:53;12.47;;;8.30;;
12110;SDS011;6119;52.372;8.990;2022-11-13T13:24:41;11.40;;;8.13;;
12110;SDS011;6119;52.372;8.990;2022-11-13T13:27:28;14.50;;;8.67;;
12110;SDS011;6119;52.372;8.990;2022-11-13T13:30:19;11.37;;;7.90;;
12110;SDS011;6119;52.372;8.990;2022-11-13T13:33:13;13.27;;;8.43;;
12110;SDS011;6119;52.372;8.990;2022-11-13T13:36:07;11.53;;;8.27;;
12110;SDS011;6119;52.372;8.990;2022-11-13T13:39:04;13.93;;;8.90;;
12110;SDS011;6119;52.372;8.990;2022-11-13T13:42:17;10.90;;;8.13;;
12110;SDS011;6119;52.372;8.990;2022-11-13T13:45:20;17.63;;;9.50;;
12110;SDS011;6119;52.372;8.990;2022-11-13T13:48:12;15.53;;;9.57;;
12110;SDS011;6119;52.372;8.990;2022-11-13T13:51:04;13.83;;;8.83;;
12110;SDS011;6119;52.372;8.990;2022-11-13T13:54:04;14.37;;;9.83;;
12110;SDS011;6119;52.372;8.990;2022-11-13T13:56:53;14.30;;;9.50;;
12110;SDS011;6119;52.372;8.990;2022-11-13T13:59:43;13.27;;;8.77;;
12110;SDS011;6119;52.372;8.990;2022-11-13T14:02:30;13.77;;;9.27;;
12110;SDS011;6119;52.372;8.990;2022-11-13T14:05:25;16.77;;;10.27;;
12110;SDS011;6119;52.372;8.990;2022-11-13T14:08:16;14.23;;;9.13;;
12110;SDS011;6119;52.372;8.990;2022-11-13T14:11:14;18.53;;;10.40;;
12110;SDS011;6119;52.372;8.990;2022-11-13T14:14:06;15.63;;;10.03;;
12110;SDS011;6119;52.372;8.990;2022-11-13T14:16:56;17.10;;;10.07;;
12110;SDS011;6119;52.372;8.990;2022-11-13T14:19:47;18.37;;;10.63;;
12110;SDS011;6119;52.372;8.990;2022-11-13T14:22:34;19.43;;;11.23;;
12110;SDS011;6119;52.372;8.990;2022-11-13T14:25:22;17.03;;;11.10;;
12110;SDS011;6119;52.372;8.990;2022-11-13T14:28:12;16.57;;;10.90;;
12110;SDS011;6119;52.372;8.990;2022-11-13T14:31:01;17.37;;;10.93;;
12110;SDS011;6119;52.372;8.990;2022-11-13T14:33:51;17.43;;;11.77;;
12110;SDS011;6119;52.372;8.990;2022-11-13T14:36:38;26.17;;;15.40;;
12110;SDS011;6119;52.372;8.990;2022-11-13T14:39:26;25.60;;;14.53;;
12110;SDS011;6119;52.372;8.990;2022-11-13T14:42:15;27.33;;;16.50;;
12110;SDS011;6119;52.372;8.990;2022-11-13T14:45:10;31.13;;;17.83;;
12110;SDS011;6119;52.372;8.990;2022-11-13T14:47:59;34.43;;;18.70;;
12110;SDS011;6119;52.372;8.990;2022-11-13T14:50:49;31.77;;;18.90;;
12110;SDS011;6119;52.372;8.990;2022-11-13T14:53:38;36.87;;;19.50;;
12110;SDS011;6119;52.372;8.990;2022-11-13T14:56:30;31.70;;;18.83;;
12110;SDS011;6119;52.372;8.990;2022-11-13T14:59:23;29.63;;;17.73;;
12110;SDS011;6119;52.372;8.990;2022-11-13T15:02:11;27.40;;;16.53;;
12110;SDS011;6119;52.372;8.990;2022-11-13T15:04:58;27.43;;;16.63;;
12110;SDS011;6119;52.372;8.990;2022-11-13T15:07:46;27.10;;;15.90;;
12110;SDS011;6119;52.372;8.990;2022-11-13T15:10:33;24.53;;;15.33;;
12110;SDS011;6119;52.372;8.990;2022-11-13T15:13:21;28.90;;;16.47;;
12110;SDS011;6119;52.372;8.990;2022-11-13T15:16:10;25.93;;;15.73;;
12110;SDS011;6119;52.372;8.990;2022-11-13T15:19:02;27.63;;;16.70;;
12110;SDS011;6119;52.372;8.990;2022-11-13T15:21:51;27.87;;;15.90;;
12110;SDS011;6119;52.372;8.990;2022-11-13T15:25:01;28.67;;;16.40;;
12110;SDS011;6119;52.372;8.990;2022-11-13T15:27:48;28.53;;;16.97;;
12110;SDS011;6119;52.372;8.990;2022-11-13T15:30:34;28.70;;;16.33;;
12110;SDS011;6119;52.372;8.990;2022-11-13T15:33:21;29.73;;;16.97;;
12110;SDS011;6119;52.372;8.990;2022-11-13T15:36:08;26.37;;;15.83;;
12110;SDS011;6119;52.372;8.990;2022-11-13T15:38:55;30.60;;;16.73;;
12110;SDS011;6119;52.372;8.990;2022-11-13T15:41:46;29.07;;;16.47;;
12110;SDS011;6119;52.372;8.990;2022-11-13T15:44:33;31.23;;;17.10;;
12110;SDS011;6119;52.372;8.990;2022-11-13T15:47:24;32.23;;;16.70;;
12110;SDS011;6119;52.372;8.990;2022-11-13T15:50:12;30.10;;;15.77;;
12110;SDS011;6119;52.372;8.990;2022-11-13T15:53:00;32.30;;;17.27;;
12110;SDS011;6119;52.372;8.990;2022-11-13T15:55:49;33.30;;;17.40;;
12110;SDS011;6119;52.372;8.990;2022-11-13T15:58:37;32.30;;;17.80;;
12110;SDS011;6119;52.372;8.990;2022-11-13T16:01:24;30.90;;;16.40;;
12110;SDS011;6119;52.372;8.990;2022-11-13T16:04:11;29.57;;;16.53;;
12110;SDS011;6119;52.372;8.990;2022-11-13T16:07:00;29.13;;;17.17;;
12110;SDS011;6119;52.372;8.990;2022-11-13T16:09:47;29.17;;;15.83;;
12110;SDS011;6119;52.372;8.990;2022-11-13T16:12:34;31.10;;;16.77;;
12110;SDS011;6119;52.372;8.990;2022-11-13T16:15:22;29.83;;;17.43;;
12110;SDS011;6119;52.372;8.990;2022-11-13T16:18:10;31.83;;;17.87;;
12110;SDS011;6119;52.372;8.990;2022-11-13T16:21:04;28.93;;;16.70;;
12110;SDS011;6119;52.372;8.990;2022-11-13T16:23:51;34.67;;;17.17;;
12110;SDS011;6119;52.372;8.990;2022-11-13T16:26:38;35.50;;;18.33;;
12110;SDS011;6119;52.372;8.990;2022-11-13T16:29:26;30.13;;;16.63;;
12110;SDS011;6119;52.372;8.990;2022-11-13T16:32:16;28.03;;;16.37;;
12110;SDS011;6119;52.372;8.990;2022-11-13T16:35:03;31.23;;;17.67;;
12110;SDS011;6119;52.372;8.990;2022-11-13T16:37:50;34.63;;;17.77;;
12110;SDS011;6119;52.372;8.990;2022-11-13T16:40:36;31.83;;;17.30;;
12110;SDS011;6119;52.372;8.990;2022-11-13T16:43:25;28.60;;;16.73;;
12110;SDS011;6119;52.372;8.990;2022-11-13T16:46:15;31.53;;;16.90;;
12110;SDS011;6119;52.372;8.990;2022-11-13T16:49:07;29.90;;;17.70;;
12110;SDS011;6119;52.372;8.990;2022-11-13T16:51:57;35.73;;;18.23;;
12110;SDS011;6119;52.372;8.990;2022-11-13T16:54:43;34.73;;;18.07;;
12110;SDS011;6119;52.372;8.990;2022-11-13T16:57:30;35.67;;;17.40;;
12110;SDS011;6119;52.372;8.990;2022-11-13T17:00:17;32.20;;;16.63;;
12110;SDS011;6119;52.372;8.990;2022-11-13T17:03:04;33.47;;;17.50;;
12110;SDS011;6119;52.372;8.990;2022-11-13T17:05:52;29.97;;;16.83;;
12110;SDS011;6119;52.372;8.990;2022-11-13T17:08:38;34.90;;;17.63;;
12110;SDS011;6119;52.372;8.990;2022-11-13T17:11:25;34.87;;;18.13;;
12110;SDS011;6119;52.372;8.990;2022-11-13T17:14:13;35.93;;;18.50;;